sensor_id;sensor_type;location;lat;lon;timestamp;pressure;altitude;pressure_sealevel;temperature;humidity
44839;BME280;30576;42.098;24.876;2022-12-29T00:01:19;100963.44;;;5.14;72.83
44839;BME280;30576;42.098;24.876;2022-12-29T00:03:47;100963.75;;;5.26;72.36
44839;BME280;30576;42.098;24.876;2022-12-29T00:06:13;100966.16;;;5.18;72.38
44839;BME280;30576;42.098;24.876;2022-12-29T00:08:38;100953.06;;;5.17;72.14
44839;BME280;30576;42.098;24.876;2022-12-29T00:13:32;100957.28;;;5.12;71.31
44839;BME280;30576;42.098;24.876;2022-12-29T00:16:16;100962.00;;;4.93;71.37
44839;BME280;30576;42.098;24.876;2022-12-29T00:18:42;100966.31;;;4.91;70.64
44839;BME280;30576;42.098;24.876;2022-12-29T00:21:10;100976.69;;;4.88;70.74
44839;BME280;30576;42.098;24.876;2022-12-29T00:23:56;100974.59;;;4.76;71.03
44839;BME280;30576;42.098;24.876;2022-12-29T00:26:39;100965.84;;;4.74;71.08
44839;BME280;30576;42.098;24.876;2022-12-29T00:29:23;100971.97;;;4.76;70.99
44839;BME280;30576;42.098;24.876;2022-12-29T00:32:08;100979.00;;;4.77;70.88
44839;BME280;30576;42.098;24.876;2022-12-29T00:34:52;100987.44;;;4.69;71.07
44839;BME280;30576;42.098;24.876;2022-12-29T00:40:36;100988.75;;;4.54;71.88
44839;BME280;30576;42.098;24.876;2022-12-29T00:43:20;100991.56;;;4.60;72.13
44839;BME280;30576;42.098;24.876;2022-12-29T00:46:03;100992.66;;;4.69;72.28
44839;BME280;30576;42.098;24.876;2022-12-29T00:48:29;100999.41;;;4.60;73.04
44839;BME280;30576;42.098;24.876;2022-12-29T00:51:12;101007.97;;;4.56;73.74
44839;BME280;30576;42.098;24.876;2022-12-29T00:53:38;101012.88;;;4.45;75.06
44839;BME280;30576;42.098;24.876;2022-12-29T00:56:04;101008.28;;;4.38;76.22
44839;BME280;30576;42.098;24.876;2022-12-29T00:58:31;101010.25;;;4.45;77.41
44839;BME280;30576;42.098;24.876;2022-12-29T01:01:02;101010.53;;;4.55;77.56
44839;BME280;30576;42.098;24.876;2022-12-29T01:03:28;101006.84;;;4.77;77.29
44839;BME280;30576;42.098;24.876;2022-12-29T01:05:53;101010.38;;;4.77;77.56
44839;BME280;30576;42.098;24.876;2022-12-29T01:08:20;101011.59;;;4.90;77.30
44839;BME280;30576;42.098;24.876;2022-12-29T01:10:45;101005.84;;;5.02;77.06
44839;BME280;30576;42.098;24.876;2022-12-29T01:13:10;101006.97;;;5.12;76.64
44839;BME280;30576;42.098;24.876;2022-12-29T01:15:36;101002.50;;;5.08;76.89
44839;BME280;30576;42.098;24.876;2022-12-29T01:18:01;101002.97;;;5.25;76.87
44839;BME280;30576;42.098;24.876;2022-12-29T01:20:26;100996.31;;;5.37;76.61
44839;BME280;30576;42.098;24.876;2022-12-29T01:22:53;100997.88;;;5.29;77.07
44839;BME280;30576;42.098;24.876;2022-12-29T01:25:18;100998.72;;;5.30;77.00
44839;BME280;30576;42.098;24.876;2022-12-29T01:27:44;101006.03;;;5.42;76.42
44839;BME280;30576;42.098;24.876;2022-12-29T01:30:09;101003.97;;;5.30;76.11
44839;BME280;30576;42.098;24.876;2022-12-29T01:32:34;100993.00;;;5.43;76.34
44839;BME280;30576;42.098;24.876;2022-12-29T01:35:00;100993.50;;;5.30;76.70
44839;BME280;30576;42.098;24.876;2022-12-29T01:37:25;100996.13;;;5.30;76.80
44839;BME280;30576;42.098;24.876;2022-12-29T01:39:50;100991.09;;;5.37;77.07
44839;BME280;30576;42.098;24.876;2022-12-29T01:42:16;100997.81;;;5.60;76.27
44839;BME280;30576;42.098;24.876;2022-12-29T01:44:52;100992.34;;;5.50;76.38
44839;BME280;30576;42.098;24.876;2022-12-29T01:47:35;100986.53;;;5.64;76.15
44839;BME280;30576;42.098;24.876;2022-12-29T01:50:04;100983.00;;;5.62;76.43
44839;BME280;30576;42.098;24.876;2022-12-29T01:52:31;100974.28;;;5.61;76.61
44839;BME280;30576;42.098;24.876;2022-12-29T01:54:57;100977.06;;;5.67;76.02
44839;BME280;30576;42.098;24.876;2022-12-29T01:57:33;100978.81;;;5.68;76.32
44839;BME280;30576;42.098;24.876;2022-12-29T02:00:09;100974.47;;;5.69;75.86
44839;BME280;30576;42.098;24.876;2022-12-29T02:02:35;100970.13;;;5.69;75.52
44839;BME280;30576;42.098;24.876;2022-12-29T02:05:03;100966.94;;;5.48;75.91
44839;BME280;30576;42.098;24.876;2022-12-29T02:07:30;100957.03;;;5.36;76.05
44839;BME280;30576;42.098;24.876;2022-12-29T02:09:56;100954.63;;;5.44;75.68
44839;BME280;30576;42.098;24.876;2022-12-29T02:12:22;100944.22;;;5.47;76.08
44839;BME280;30576;42.098;24.876;2022-12-29T02:14:49;100952.09;;;5.47;76.11
44839;BME280;30576;42.098;24.876;2022-12-29T02:17:24;100953.97;;;5.52;76.32
44839;BME280;30576;42.098;24.876;2022-12-29T02:27:43;100931.53;;;5.62;76.89
44839;BME280;30576;42.098;24.876;2022-12-29T02:35:40;100930.16;;;5.77;77.26
44839;BME280;30576;42.098;24.876;2022-12-29T02:48:43;100909.97;;;6.07;76.31
44839;BME280;30576;42.098;24.876;2022-12-29T02:51:12;100911.34;;;5.95;77.16
44839;BME280;30576;42.098;24.876;2022-12-29T02:53:40;100911.78;;;5.75;77.96
44839;BME280;30576;42.098;24.876;2022-12-29T02:56:24;100904.97;;;5.82;78.03
44839;BME280;30576;42.098;24.876;2022-12-29T02:58:49;100905.84;;;5.82;78.55
44839;BME280;30576;42.098;24.876;2022-12-29T03:11:23;100901.94;;;6.00;78.00
44839;BME280;30576;42.098;24.876;2022-12-29T03:16:56;100895.59;;;5.93;78.56
44839;BME280;30576;42.098;24.876;2022-12-29T03:19:35;100903.75;;;6.04;78.72
44839;BME280;30576;42.098;24.876;2022-12-29T03:22:01;100902.94;;;6.06;78.23
44839;BME280;30576;42.098;24.876;2022-12-29T03:24:48;100896.88;;;6.07;78.49
44839;BME280;30576;42.098;24.876;2022-12-29T03:27:18;100889.03;;;6.09;79.00
44839;BME280;30576;42.098;24.876;2022-12-29T03:29:49;100887.25;;;6.08;78.93
44839;BME280;30576;42.098;24.876;2022-12-29T03:32:19;100894.47;;;6.18;78.79
44839;BME280;30576;42.098;24.876;2022-12-29T03:34:45;100891.81;;;6.17;78.57
44839;BME280;30576;42.098;24.876;2022-12-29T03:37:13;100896.97;;;6.12;78.56
44839;BME280;30576;42.098;24.876;2022-12-29T03:39:40;100899.78;;;6.21;77.93
44839;BME280;30576;42.098;24.876;2022-12-29T03:42:11;100897.03;;;6.15;78.63
44839;BME280;30576;42.098;24.876;2022-12-29T03:44:40;100886.91;;;6.32;77.71
44839;BME280;30576;42.098;24.876;2022-12-29T03:47:06;100894.59;;;6.23;76.75
44839;BME280;30576;42.098;24.876;2022-12-29T03:49:32;100886.59;;;6.17;76.85
44839;BME280;30576;42.098;24.876;2022-12-29T03:51:57;100884.16;;;6.26;75.96
44839;BME280;30576;42.098;24.876;2022-12-29T03:54:23;100887.16;;;6.03;75.46
44839;BME280;30576;42.098;24.876;2022-12-29T03:56:48;100898.44;;;5.64;74.76
44839;BME280;30576;42.098;24.876;2022-12-29T04:02:16;100896.41;;;5.17;76.15
44839;BME280;30576;42.098;24.876;2022-12-29T04:04:41;100892.94;;;5.18;75.64
44839;BME280;30576;42.098;24.876;2022-12-29T04:07:06;100897.53;;;5.27;75.66
44839;BME280;30576;42.098;24.876;2022-12-29T04:09:32;100897.00;;;5.42;74.86
44839;BME280;30576;42.098;24.876;2022-12-29T04:11:57;100902.13;;;5.37;74.57
44839;BME280;30576;42.098;24.876;2022-12-29T04:14:22;100902.75;;;5.27;75.25
44839;BME280;30576;42.098;24.876;2022-12-29T04:16:48;100901.72;;;5.55;74.78
44839;BME280;30576;42.098;24.876;2022-12-29T04:19:13;100907.91;;;5.59;74.49
44839;BME280;30576;42.098;24.876;2022-12-29T04:21:38;100906.00;;;5.52;73.96
44839;BME280;30576;42.098;24.876;2022-12-29T04:24:04;100905.09;;;5.51;74.73
44839;BME280;30576;42.098;24.876;2022-12-29T04:26:31;100909.72;;;5.27;75.09
44839;BME280;30576;42.098;24.876;2022-12-29T04:28:56;100917.66;;;5.31;75.34
44839;BME280;30576;42.098;24.876;2022-12-29T04:31:22;100921.22;;;5.33;75.31
44839;BME280;30576;42.098;24.876;2022-12-29T04:33:47;100915.84;;;5.27;75.98
44839;BME280;30576;42.098;24.876;2022-12-29T04:36:14;100920.19;;;5.28;76.07
44839;BME280;30576;42.098;24.876;2022-12-29T04:38:39;100925.34;;;4.92;77.84
44839;BME280;30576;42.098;24.876;2022-12-29T04:41:04;100927.44;;;5.04;77.38
44839;BME280;30576;42.098;24.876;2022-12-29T04:43:30;100926.91;;;4.85;78.55
44839;BME280;30576;42.098;24.876;2022-12-29T04:48:58;100949.66;;;4.89;78.99
44839;BME280;30576;42.098;24.876;2022-12-29T04:51:26;100942.03;;;4.97;78.79
44839;BME280;30576;42.098;24.876;2022-12-29T04:53:52;100952.84;;;5.09;78.19
44839;BME280;30576;42.098;24.876;2022-12-29T04:56:17;100947.56;;;4.76;79.07
44839;BME280;30576;42.098;24.876;2022-12-29T04:58:42;100943.81;;;4.98;78.48
44839;BME280;30576;42.098;24.876;2022-12-29T05:01:08;100948.13;;;4.96;78.17
44839;BME280;30576;42.098;24.876;2022-12-29T05:03:33;100943.22;;;5.07;78.08
44839;BME280;30576;42.098;24.876;2022-12-29T05:05:58;100939.59;;;5.03;78.17
44839;BME280;30576;42.098;24.876;2022-12-29T05:08:24;100942.25;;;5.05;77.86
44839;BME280;30576;42.098;24.876;2022-12-29T05:10:50;100951.53;;;4.93;77.87
44839;BME280;30576;42.098;24.876;2022-12-29T05:13:15;100959.38;;;4.93;77.50
44839;BME280;30576;42.098;24.876;2022-12-29T05:15:41;100960.97;;;4.87;77.50
44839;BME280;30576;42.098;24.876;2022-12-29T05:18:10;100960.19;;;4.91;77.12
44839;BME280;30576;42.098;24.876;2022-12-29T05:20:35;100962.84;;;4.92;76.45
44839;BME280;30576;42.098;24.876;2022-12-29T05:23:01;100959.25;;;4.89;76.34
44839;BME280;30576;42.098;24.876;2022-12-29T05:28:29;100957.50;;;4.57;75.79
44839;BME280;30576;42.098;24.876;2022-12-29T05:30:54;100951.19;;;4.51;75.95
44839;BME280;30576;42.098;24.876;2022-12-29T05:33:20;100961.06;;;4.61;75.80
44839;BME280;30576;42.098;24.876;2022-12-29T05:35:45;100960.16;;;4.59;75.37
44839;BME280;30576;42.098;24.876;2022-12-29T05:38:11;100955.22;;;4.39;75.36
44839;BME280;30576;42.098;24.876;2022-12-29T05:40:36;100955.72;;;4.56;74.53
44839;BME280;30576;42.098;24.876;2022-12-29T05:43:01;100947.13;;;4.32;74.87
44839;BME280;30576;42.098;24.876;2022-12-29T05:45:27;100947.22;;;4.35;74.90
44839;BME280;30576;42.098;24.876;2022-12-29T05:47:52;100951.41;;;4.28;74.55
44839;BME280;30576;42.098;24.876;2022-12-29T05:50:18;100946.84;;;4.22;74.70
44839;BME280;30576;42.098;24.876;2022-12-29T05:52:43;100941.22;;;4.37;74.44
44839;BME280;30576;42.098;24.876;2022-12-29T05:55:08;100948.06;;;4.05;74.73
44839;BME280;30576;42.098;24.876;2022-12-29T05:57:34;100950.53;;;3.47;76.15
44839;BME280;30576;42.098;24.876;2022-12-29T05:59:59;100942.84;;;3.78;74.58
44839;BME280;30576;42.098;24.876;2022-12-29T06:02:24;100946.81;;;3.66;74.24
44839;BME280;30576;42.098;24.876;2022-12-29T06:04:50;100949.34;;;3.37;74.68
44839;BME280;30576;42.098;24.876;2022-12-29T06:07:15;100952.19;;;3.71;74.61
44839;BME280;30576;42.098;24.876;2022-12-29T06:09:40;100951.53;;;3.78;74.38
44839;BME280;30576;42.098;24.876;2022-12-29T06:12:05;100948.69;;;3.70;74.15
44839;BME280;30576;42.098;24.876;2022-12-29T06:14:31;100938.94;;;3.65;75.35
44839;BME280;30576;42.098;24.876;2022-12-29T06:16:56;100948.72;;;3.72;75.25
44839;BME280;30576;42.098;24.876;2022-12-29T06:19:22;100951.94;;;3.90;74.90
44839;BME280;30576;42.098;24.876;2022-12-29T06:21:47;100948.56;;;3.67;76.49
44839;BME280;30576;42.098;24.876;2022-12-29T06:24:12;100944.88;;;3.61;76.50
44839;BME280;30576;42.098;24.876;2022-12-29T06:26:39;100943.63;;;3.75;76.17
44839;BME280;30576;42.098;24.876;2022-12-29T06:29:05;100939.50;;;4.10;75.17
44839;BME280;30576;42.098;24.876;2022-12-29T06:31:31;100940.53;;;4.14;75.11
44839;BME280;30576;42.098;24.876;2022-12-29T06:33:57;100944.97;;;4.18;75.45
44839;BME280;30576;42.098;24.876;2022-12-29T06:36:22;100942.66;;;4.27;74.48
44839;BME280;30576;42.098;24.876;2022-12-29T06:38:47;100947.03;;;4.28;74.75
44839;BME280;30576;42.098;24.876;2022-12-29T06:44:16;100953.72;;;4.19;76.08
44839;BME280;30576;42.098;24.876;2022-12-29T06:46:41;100954.88;;;4.28;75.87
44839;BME280;30576;42.098;24.876;2022-12-29T06:49:06;100956.66;;;4.29;76.39
44839;BME280;30576;42.098;24.876;2022-12-29T06:51:32;100965.06;;;4.48;76.48
44839;BME280;30576;42.098;24.876;2022-12-29T06:53:57;100963.19;;;4.73;76.40
44839;BME280;30576;42.098;24.876;2022-12-29T06:56:22;100969.47;;;4.51;78.21
44839;BME280;30576;42.098;24.876;2022-12-29T06:58:47;100963.19;;;4.73;79.00
44839;BME280;30576;42.098;24.876;2022-12-29T07:01:13;100968.03;;;4.60;79.50
44839;BME280;30576;42.098;24.876;2022-12-29T07:03:40;100971.06;;;4.74;80.26
44839;BME280;30576;42.098;24.876;2022-12-29T07:06:08;100969.84;;;4.93;80.28
44839;BME280;30576;42.098;24.876;2022-12-29T07:08:33;100965.50;;;4.94;80.92
44839;BME280;30576;42.098;24.876;2022-12-29T07:10:59;100969.28;;;5.04;82.14
44839;BME280;30576;42.098;24.876;2022-12-29T07:13:25;100969.97;;;5.30;82.45
44839;BME280;30576;42.098;24.876;2022-12-29T07:15:50;100975.50;;;5.76;81.67
44839;BME280;30576;42.098;24.876;2022-12-29T07:18:15;100974.56;;;5.72;80.47
44839;BME280;30576;42.098;24.876;2022-12-29T07:20:41;100974.59;;;5.40;81.53
44839;BME280;30576;42.098;24.876;2022-12-29T07:23:06;100984.50;;;5.52;80.71
44839;BME280;30576;42.098;24.876;2022-12-29T07:25:31;100977.84;;;5.31;81.05
44839;BME280;30576;42.098;24.876;2022-12-29T07:28:01;100976.34;;;5.40;81.17
44839;BME280;30576;42.098;24.876;2022-12-29T07:30:27;100982.84;;;5.55;80.51
44839;BME280;30576;42.098;24.876;2022-12-29T07:32:52;100988.78;;;5.83;80.24
44839;BME280;30576;42.098;24.876;2022-12-29T07:35:17;100993.13;;;5.81;79.13
44839;BME280;30576;42.098;24.876;2022-12-29T07:37:43;100982.78;;;5.52;79.96
44839;BME280;30576;42.098;24.876;2022-12-29T07:40:08;100980.19;;;5.54;80.54
44839;BME280;30576;42.098;24.876;2022-12-29T07:42:34;100981.31;;;5.64;79.50
44839;BME280;30576;42.098;24.876;2022-12-29T07:44:59;100986.81;;;5.74;79.14
44839;BME280;30576;42.098;24.876;2022-12-29T07:47:25;100989.25;;;6.00;78.46
44839;BME280;30576;42.098;24.876;2022-12-29T07:49:50;100993.78;;;6.07;77.77
44839;BME280;30576;42.098;24.876;2022-12-29T07:52:16;100989.78;;;6.23;78.60
44839;BME280;30576;42.098;24.876;2022-12-29T07:54:41;100979.88;;;6.48;77.77
44839;BME280;30576;42.098;24.876;2022-12-29T07:57:08;100978.41;;;6.62;77.50
44839;BME280;30576;42.098;24.876;2022-12-29T08:02:36;100980.09;;;7.00;75.45
44839;BME280;30576;42.098;24.876;2022-12-29T08:05:02;100986.28;;;7.04;75.16
44839;BME280;30576;42.098;24.876;2022-12-29T08:07:27;100987.56;;;6.80;76.35
44839;BME280;30576;42.098;24.876;2022-12-29T08:09:52;100992.50;;;6.66;77.93
44839;BME280;30576;42.098;24.876;2022-12-29T08:12:18;100996.41;;;6.45;78.54
44839;BME280;30576;42.098;24.876;2022-12-29T08:14:44;100996.31;;;6.82;77.96
44839;BME280;30576;42.098;24.876;2022-12-29T08:17:09;100997.03;;;7.16;76.34
44839;BME280;30576;42.098;24.876;2022-12-29T08:22:45;101001.31;;;7.11;76.65
44839;BME280;30576;42.098;24.876;2022-12-29T08:25:10;100996.63;;;7.40;76.33
44839;BME280;30576;42.098;24.876;2022-12-29T08:27:36;100992.56;;;7.59;75.33
44839;BME280;30576;42.098;24.876;2022-12-29T08:30:01;100993.22;;;7.96;72.62
44839;BME280;30576;42.098;24.876;2022-12-29T08:32:27;100994.69;;;7.79;73.53
44839;BME280;30576;42.098;24.876;2022-12-29T08:34:53;100983.47;;;7.91;72.70
44839;BME280;30576;42.098;24.876;2022-12-29T08:37:19;100977.69;;;7.60;73.81
44839;BME280;30576;42.098;24.876;2022-12-29T08:39:45;100974.19;;;8.11;72.27
44839;BME280;30576;42.098;24.876;2022-12-29T08:42:10;100976.75;;;8.08;71.38
44839;BME280;30576;42.098;24.876;2022-12-29T08:44:36;100976.53;;;7.94;72.25
44839;BME280;30576;42.098;24.876;2022-12-29T08:50:04;100973.31;;;8.14;70.76
44839;BME280;30576;42.098;24.876;2022-12-29T08:55:32;100965.91;;;8.45;68.49
44839;BME280;30576;42.098;24.876;2022-12-29T08:57:58;100957.31;;;8.55;68.88
44839;BME280;30576;42.098;24.876;2022-12-29T09:00:23;100963.38;;;8.51;69.39
44839;BME280;30576;42.098;24.876;2022-12-29T09:02:48;100953.06;;;8.66;69.61
44839;BME280;30576;42.098;24.876;2022-12-29T09:05:14;100949.94;;;8.96;67.74
44839;BME280;30576;42.098;24.876;2022-12-29T09:07:39;100949.03;;;8.93;67.02
44839;BME280;30576;42.098;24.876;2022-12-29T09:13:07;100940.59;;;9.26;66.33
44839;BME280;30576;42.098;24.876;2022-12-29T09:15:32;100939.81;;;9.35;65.47
44839;BME280;30576;42.098;24.876;2022-12-29T09:17:58;100938.44;;;8.87;66.72
44839;BME280;30576;42.098;24.876;2022-12-29T09:20:24;100925.22;;;8.82;68.15
44839;BME280;30576;42.098;24.876;2022-12-29T09:22:49;100927.25;;;9.09;67.19
44839;BME280;30576;42.098;24.876;2022-12-29T09:25:14;100922.16;;;9.26;66.20
44839;BME280;30576;42.098;24.876;2022-12-29T09:27:40;100916.22;;;9.47;65.52
44839;BME280;30576;42.098;24.876;2022-12-29T09:30:08;100919.50;;;9.23;66.19
44839;BME280;30576;42.098;24.876;2022-12-29T09:32:34;100918.59;;;9.20;67.44
44839;BME280;30576;42.098;24.876;2022-12-29T09:34:59;100905.50;;;9.27;66.05
44839;BME280;30576;42.098;24.876;2022-12-29T09:37:25;100903.00;;;9.43;65.30
44839;BME280;30576;42.098;24.876;2022-12-29T09:39:50;100904.81;;;9.47;65.64
44839;BME280;30576;42.098;24.876;2022-12-29T09:42:26;100900.31;;;9.37;65.82
44839;BME280;30576;42.098;24.876;2022-12-29T09:50:39;100882.97;;;9.62;66.41
44839;BME280;30576;42.098;24.876;2022-12-29T09:55:54;100870.91;;;9.90;64.67
44839;BME280;30576;42.098;24.876;2022-12-29T10:01:04;100862.88;;;9.72;65.47
44839;BME280;30576;42.098;24.876;2022-12-29T10:03:41;100859.25;;;9.62;66.35
44839;BME280;30576;42.098;24.876;2022-12-29T10:06:12;100853.41;;;10.04;65.93
44839;BME280;30576;42.098;24.876;2022-12-29T10:08:44;100846.25;;;9.86;65.12
44839;BME280;30576;42.098;24.876;2022-12-29T10:22:19;100832.50;;;10.38;63.19
44839;BME280;30576;42.098;24.876;2022-12-29T10:24:48;100823.56;;;10.09;63.67
44839;BME280;30576;42.098;24.876;2022-12-29T10:30:19;100829.66;;;10.00;64.43
44839;BME280;30576;42.098;24.876;2022-12-29T10:32:51;100821.69;;;9.92;64.37
44839;BME280;30576;42.098;24.876;2022-12-29T10:35:19;100819.88;;;9.80;64.79
44839;BME280;30576;42.098;24.876;2022-12-29T10:40:52;100813.19;;;10.44;62.42
44839;BME280;30576;42.098;24.876;2022-12-29T10:43:25;100813.78;;;9.89;63.35
44839;BME280;30576;42.098;24.876;2022-12-29T10:45:58;100807.72;;;10.06;63.61
44839;BME280;30576;42.098;24.876;2022-12-29T10:48:27;100810.47;;;10.30;63.20
44839;BME280;30576;42.098;24.876;2022-12-29T10:51:26;100812.34;;;10.59;62.47
44839;BME280;30576;42.098;24.876;2022-12-29T10:53:55;100807.88;;;10.35;63.73
44839;BME280;30576;42.098;24.876;2022-12-29T10:59:31;100802.50;;;10.16;63.69
44839;BME280;30576;42.098;24.876;2022-12-29T11:02:22;100796.28;;;10.07;63.64
44839;BME280;30576;42.098;24.876;2022-12-29T11:07:56;100778.91;;;10.63;62.18
44839;BME280;30576;42.098;24.876;2022-12-29T11:13:30;100782.47;;;10.72;62.48
44839;BME280;30576;42.098;24.876;2022-12-29T11:15:56;100778.97;;;10.98;62.42
44839;BME280;30576;42.098;24.876;2022-12-29T11:18:36;100773.69;;;10.97;62.68
44839;BME280;30576;42.098;24.876;2022-12-29T11:24:24;100767.53;;;10.93;61.74
44839;BME280;30576;42.098;24.876;2022-12-29T11:26:52;100766.66;;;11.16;60.77
44839;BME280;30576;42.098;24.876;2022-12-29T11:32:28;100743.75;;;11.15;61.73
44839;BME280;30576;42.098;24.876;2022-12-29T11:34:57;100754.31;;;11.01;62.68
44839;BME280;30576;42.098;24.876;2022-12-29T11:37:26;100759.56;;;10.61;63.95
44839;BME280;30576;42.098;24.876;2022-12-29T11:42:18;100743.75;;;10.96;62.96
44839;BME280;30576;42.098;24.876;2022-12-29T11:44:45;100746.41;;;11.19;61.78
44839;BME280;30576;42.098;24.876;2022-12-29T11:47:30;100748.16;;;11.20;61.34
44839;BME280;30576;42.098;24.876;2022-12-29T11:50:02;100744.63;;;10.97;61.91
44839;BME280;30576;42.098;24.876;2022-12-29T11:52:28;100744.63;;;10.87;61.94
44839;BME280;30576;42.098;24.876;2022-12-29T11:55:05;100749.91;;;10.98;62.00
44839;BME280;30576;42.098;24.876;2022-12-29T12:00:36;100734.06;;;11.09;62.13
44839;BME280;30576;42.098;24.876;2022-12-29T12:06:10;100732.34;;;11.13;61.21
44839;BME280;30576;42.098;24.876;2022-12-29T12:08:44;100736.72;;;11.14;60.81
44839;BME280;30576;42.098;24.876;2022-12-29T12:11:20;100725.28;;;11.10;60.95
44839;BME280;30576;42.098;24.876;2022-12-29T12:16:54;100715.56;;;11.37;60.84
44839;BME280;30576;42.098;24.876;2022-12-29T12:21:56;100714.72;;;10.96;61.37
44839;BME280;30576;42.098;24.876;2022-12-29T12:27:32;100711.19;;;11.33;60.41
44839;BME280;30576;42.098;24.876;2022-12-29T12:30:09;100711.19;;;11.20;60.73
44839;BME280;30576;42.098;24.876;2022-12-29T12:32:50;100706.78;;;11.08;61.19
44839;BME280;30576;42.098;24.876;2022-12-29T12:35:38;100709.41;;;11.25;60.55
44839;BME280;30576;42.098;24.876;2022-12-29T12:41:20;100706.72;;;11.50;59.35
44839;BME280;30576;42.098;24.876;2022-12-29T12:43:51;100709.38;;;11.49;59.34
44839;BME280;30576;42.098;24.876;2022-12-29T12:46:25;100710.22;;;11.51;59.83
44839;BME280;30576;42.098;24.876;2022-12-29T12:54:17;100706.63;;;11.79;59.12
44839;BME280;30576;42.098;24.876;2022-12-29T13:00:00;100706.63;;;11.82;58.55
44839;BME280;30576;42.098;24.876;2022-12-29T13:02:42;100713.69;;;11.83;58.25
44839;BME280;30576;42.098;24.876;2022-12-29T13:05:24;100704.03;;;11.70;57.97
44839;BME280;30576;42.098;24.876;2022-12-29T13:18:53;100715.50;;;11.52;58.64
44839;BME280;30576;42.098;24.876;2022-12-29T13:24:17;100708.50;;;11.48;59.13
44839;BME280;30576;42.098;24.876;2022-12-29T13:26:58;100713.75;;;11.59;59.39
44839;BME280;30576;42.098;24.876;2022-12-29T13:29:33;100702.31;;;11.52;59.01
44839;BME280;30576;42.098;24.876;2022-12-29T13:37:53;100704.97;;;11.40;59.52
44839;BME280;30576;42.098;24.876;2022-12-29T13:40:21;100703.22;;;11.51;59.35
44839;BME280;30576;42.098;24.876;2022-12-29T13:42:48;100697.03;;;11.41;59.86
44839;BME280;30576;42.098;24.876;2022-12-29T13:48:19;100703.25;;;11.29;60.21
44839;BME280;30576;42.098;24.876;2022-12-29T13:50:54;100699.72;;;11.34;59.89
44839;BME280;30576;42.098;24.876;2022-12-29T14:01:08;100706.72;;;11.52;59.43
44839;BME280;30576;42.098;24.876;2022-12-29T14:11:56;100709.41;;;11.35;60.02
44839;BME280;30576;42.098;24.876;2022-12-29T14:14:25;100709.41;;;11.27;60.48
44839;BME280;30576;42.098;24.876;2022-12-29T14:19:55;100707.66;;;11.24;60.65
44839;BME280;30576;42.098;24.876;2022-12-29T14:22:25;100707.66;;;11.20;60.59
44839;BME280;30576;42.098;24.876;2022-12-29T14:24:50;100705.03;;;11.14;60.44
44839;BME280;30576;42.098;24.876;2022-12-29T14:33:00;100709.41;;;11.24;60.22
44839;BME280;30576;42.098;24.876;2022-12-29T14:35:39;100708.56;;;11.08;60.79
44839;BME280;30576;42.098;24.876;2022-12-29T14:38:15;100702.38;;;11.01;60.82
44839;BME280;30576;42.098;24.876;2022-12-29T14:40:42;100710.31;;;10.97;61.12
44839;BME280;30576;42.098;24.876;2022-12-29T14:43:12;100715.59;;;11.06;60.91
44839;BME280;30576;42.098;24.876;2022-12-29T14:45:38;100712.94;;;10.80;61.56
44839;BME280;30576;42.098;24.876;2022-12-29T14:51:20;100711.22;;;10.80;61.58
44839;BME280;30576;42.098;24.876;2022-12-29T14:53:50;100709.41;;;10.41;62.85
44839;BME280;30576;42.098;24.876;2022-12-29T14:56:17;100713.84;;;10.66;62.45
44839;BME280;30576;42.098;24.876;2022-12-29T15:01:19;100712.97;;;10.53;62.46
44839;BME280;30576;42.098;24.876;2022-12-29T15:03:47;100718.25;;;10.52;62.72
44839;BME280;30576;42.098;24.876;2022-12-29T15:06:18;100713.84;;;10.55;62.38
44839;BME280;30576;42.098;24.876;2022-12-29T15:11:21;100704.06;;;10.30;63.54
44839;BME280;30576;42.098;24.876;2022-12-29T15:13:47;100719.88;;;10.20;63.24
44839;BME280;30576;42.098;24.876;2022-12-29T15:16:46;100718.09;;;10.10;64.09
44839;BME280;30576;42.098;24.876;2022-12-29T15:19:05;100718.94;;;9.98;63.94
44839;BME280;30576;42.098;24.876;2022-12-29T15:21:45;100718.91;;;9.89;64.08
44839;BME280;30576;42.098;24.876;2022-12-29T15:24:11;100721.47;;;9.72;64.12
44839;BME280;30576;42.098;24.876;2022-12-29T15:26:38;100721.44;;;9.67;64.45
44839;BME280;30576;42.098;24.876;2022-12-29T15:29:04;100731.91;;;9.54;65.25
44839;BME280;30576;42.098;24.876;2022-12-29T15:31:29;100723.09;;;9.50;65.62
44839;BME280;30576;42.098;24.876;2022-12-29T15:34:00;100729.22;;;9.47;65.09
44839;BME280;30576;42.098;24.876;2022-12-29T15:36:27;100736.97;;;9.26;65.46
44839;BME280;30576;42.098;24.876;2022-12-29T15:38:53;100734.31;;;9.23;65.71
44839;BME280;30576;42.098;24.876;2022-12-29T15:46:53;100729.84;;;9.09;66.32
44839;BME280;30576;42.098;24.876;2022-12-29T15:49:18;100730.63;;;8.98;66.46
44839;BME280;30576;42.098;24.876;2022-12-29T15:51:45;100738.47;;;8.88;66.43
44839;BME280;30576;42.098;24.876;2022-12-29T15:54:17;100738.34;;;8.76;66.81
44839;BME280;30576;42.098;24.876;2022-12-29T15:56:43;100738.25;;;8.65;66.38
44839;BME280;30576;42.098;24.876;2022-12-29T16:02:07;100738.06;;;8.47;66.49
44839;BME280;30576;42.098;24.876;2022-12-29T16:04:34;100748.44;;;8.36;67.21
44839;BME280;30576;42.098;24.876;2022-12-29T16:07:01;100746.56;;;8.25;67.02
44839;BME280;30576;42.098;24.876;2022-12-29T16:09:41;100750.81;;;8.13;68.04
44839;BME280;30576;42.098;24.876;2022-12-29T16:12:07;100747.25;;;8.09;68.09
44839;BME280;30576;42.098;24.876;2022-12-29T16:14:41;100748.06;;;8.03;68.34
44839;BME280;30576;42.098;24.876;2022-12-29T16:17:18;100756.66;;;7.92;69.17
44839;BME280;30576;42.098;24.876;2022-12-29T16:19:56;100751.41;;;7.90;68.89
44839;BME280;30576;42.098;24.876;2022-12-29T16:22:28;100755.78;;;7.91;68.53